sensor_id;sensor_type;location;lat;lon;timestamp;pressure;altitude;pressure_sealevel;temperature;humidity
68594;BME280;55563;52.416;13.548;2023-04-21T00:01:04;101582.06;;;10.08;100.00
68594;BME280;55563;52.416;13.548;2023-04-21T00:03:07;101579.53;;;10.14;100.00
68594;BME280;55563;52.416;13.548;2023-04-21T00:05:08;101580.91;;;10.04;100.00
68594;BME280;55563;52.416;13.548;2023-04-21T00:07:10;101574.66;;;9.94;100.00
68594;BME280;55563;52.416;13.548;2023-04-21T00:09:11;101573.03;;;9.93;100.00
68594;BME280;55563;52.416;13.548;2023-04-21T00:11:12;101583.31;;;9.94;100.00
68594;BME280;55563;52.416;13.548;2023-04-21T00:13:14;101582.09;;;9.97;100.00
68594;BME280;55563;52.416;13.548;2023-04-21T00:15:15;101581.50;;;9.95;100.00
68594;BME280;55563;52.416;13.548;2023-04-21T00:17:15;101577.97;;;9.89;100.00
68594;BME280;55563;52.416;13.548;2023-04-21T00:19:17;101585.25;;;9.99;100.00
68594;BME280;55563;52.416;13.548;2023-04-21T00:21:17;101578.88;;;9.95;100.00
68594;BME280;55563;52.416;13.548;2023-04-21T00:23:18;101576.38;;;10.00;100.00
68594;BME280;55563;52.416;13.548;2023-04-21T00:25:19;101573.50;;;10.01;100.00
68594;BME280;55563;52.416;13.548;2023-04-21T00:27:20;101576.38;;;10.00;100.00
68594;BME280;55563;52.416;13.548;2023-04-21T00:29:28;101574.06;;;10.03;100.00
68594;BME280;55563;52.416;13.548;2023-04-21T00:31:35;101574.66;;;9.94;100.00
68594;BME280;55563;52.416;13.548;2023-04-21T00:33:56;101567.78;;;9.93;100.00
68594;BME280;55563;52.416;13.548;2023-04-21T00:36:04;101569.06;;;9.90;100.00
68594;BME280;55563;52.416;13.548;2023-04-21T00:38:05;101567.56;;;10.06;100.00
68594;BME280;55563;52.416;13.548;2023-04-21T00:40:07;101568.38;;;10.06;100.00
68594;BME280;55563;52.416;13.548;2023-04-21T00:42:08;101560.72;;;10.05;100.00
68594;BME280;55563;52.416;13.548;2023-04-21T00:44:09;101568.03;;;9.91;100.00
68594;BME280;55563;52.416;13.548;2023-04-21T00:46:11;101557.97;;;9.88;100.00
68594;BME280;55563;52.416;13.548;2023-04-21T00:48:12;101566.13;;;9.87;100.00
68594;BME280;55563;52.416;13.548;2023-04-21T00:50:13;101567.34;;;9.84;100.00
68594;BME280;55563;52.416;13.548;2023-04-21T00:52:16;101564.88;;;9.78;100.00
68594;BME280;55563;52.416;13.548;2023-04-21T00:54:18;101569.97;;;9.84;100.00
68594;BME280;55563;52.416;13.548;2023-04-21T00:56:19;101559.03;;;9.76;100.00
68594;BME280;55563;52.416;13.548;2023-04-21T00:58:21;101560.31;;;9.73;100.00
68594;BME280;55563;52.416;13.548;2023-04-21T01:00:22;101563.16;;;9.72;100.00
68594;BME280;55563;52.416;13.548;2023-04-21T01:02:23;101562.69;;;9.75;100.00
68594;BME280;55563;52.416;13.548;2023-04-21T01:04:24;101566.91;;;9.76;100.00
68594;BME280;55563;52.416;13.548;2023-04-21T01:06:27;101556.31;;;9.71;100.00
68594;BME280;55563;52.416;13.548;2023-04-21T01:08:28;101560.09;;;9.63;100.00
68594;BME280;55563;52.416;13.548;2023-04-21T01:10:29;101556.44;;;9.52;100.00
68594;BME280;55563;52.416;13.548;2023-04-21T01:12:30;101561.09;;;9.50;100.00
68594;BME280;55563;52.416;13.548;2023-04-21T01:14:33;101554.28;;;9.49;100.00
68594;BME280;55563;52.416;13.548;2023-04-21T01:16:34;101562.78;;;9.45;100.00
68594;BME280;55563;52.416;13.548;2023-04-21T01:18:36;101555.16;;;9.43;100.00
68594;BME280;55563;52.416;13.548;2023-04-21T01:20:36;101559.50;;;9.38;100.00
68594;BME280;55563;52.416;13.548;2023-04-21T01:22:41;101560.19;;;9.33;100.00
68594;BME280;55563;52.416;13.548;2023-04-21T01:24:45;101558.69;;;9.26;100.00
68594;BME280;55563;52.416;13.548;2023-04-21T01:26:46;101561.97;;;9.21;100.00
68594;BME280;55563;52.416;13.548;2023-04-21T01:28:49;101555.63;;;9.29;100.00
68594;BME280;55563;52.416;13.548;2023-04-21T01:30:49;101553.34;;;9.21;100.00
68594;BME280;55563;52.416;13.548;2023-04-21T01:32:51;101555.47;;;9.12;100.00
68594;BME280;55563;52.416;13.548;2023-04-21T01:34:52;101548.44;;;9.24;100.00
68594;BME280;55563;52.416;13.548;2023-04-21T01:36:53;101555.63;;;9.29;100.00
68594;BME280;55563;52.416;13.548;2023-04-21T01:38:56;101555.50;;;9.24;100.00
68594;BME280;55563;52.416;13.548;2023-04-21T01:40:57;101544.53;;;9.15;100.00
68594;BME280;55563;52.416;13.548;2023-04-21T01:42:59;101551.28;;;9.11;100.00
68594;BME280;55563;52.416;13.548;2023-04-21T01:45:00;101547.03;;;9.22;100.00
68594;BME280;55563;52.416;13.548;2023-04-21T01:47:01;101542.00;;;9.08;100.00
68594;BME280;55563;52.416;13.548;2023-04-21T01:49:01;101539.28;;;9.03;100.00
68594;BME280;55563;52.416;13.548;2023-04-21T01:51:02;101548.28;;;9.07;100.00
68594;BME280;55563;52.416;13.548;2023-04-21T01:53:03;101540.75;;;8.99;100.00
68594;BME280;55563;52.416;13.548;2023-04-21T01:55:04;101546.47;;;9.08;100.00
68594;BME280;55563;52.416;13.548;2023-04-21T01:57:05;101538.59;;;9.08;100.00
68594;BME280;55563;52.416;13.548;2023-04-21T01:59:06;101542.69;;;9.04;100.00
68594;BME280;55563;52.416;13.548;2023-04-21T02:01:08;101535.41;;;9.06;100.00
68594;BME280;55563;52.416;13.548;2023-04-21T02:03:09;101528.69;;;9.10;100.00
68594;BME280;55563;52.416;13.548;2023-04-21T02:05:11;101538.84;;;9.06;100.00
68594;BME280;55563;52.416;13.548;2023-04-21T02:07:12;101528.69;;;9.10;100.00
68594;BME280;55563;52.416;13.548;2023-04-21T02:09:14;101527.44;;;9.01;100.00
68594;BME280;55563;52.416;13.548;2023-04-21T02:11:15;101526.97;;;9.04;100.00
68594;BME280;55563;52.416;13.548;2023-04-21T02:13:16;101524.22;;;8.99;100.00
68594;BME280;55563;52.416;13.548;2023-04-21T02:15:17;101529.25;;;9.12;100.00
68594;BME280;55563;52.416;13.548;2023-04-21T02:17:19;101534.25;;;9.02;100.00
68594;BME280;55563;52.416;13.548;2023-04-21T02:19:19;101532.16;;;8.92;100.00
68594;BME280;55563;52.416;13.548;2023-04-21T02:21:20;101526.38;;;8.90;100.00
68594;BME280;55563;52.416;13.548;2023-04-21T02:23:22;101526.84;;;8.99;100.00
68594;BME280;55563;52.416;13.548;2023-04-21T02:25:23;101524.94;;;9.06;100.00
68594;BME280;55563;52.416;13.548;2023-04-21T02:27:24;101518.50;;;8.90;100.00
68594;BME280;55563;52.416;13.548;2023-04-21T02:29:25;101517.50;;;8.91;100.00
68594;BME280;55563;52.416;13.548;2023-04-21T02:31:25;101518.50;;;8.90;100.00
68594;BME280;55563;52.416;13.548;2023-04-21T02:33:26;101511.88;;;8.88;100.00
68594;BME280;55563;52.416;13.548;2023-04-21T02:35:27;101520.44;;;8.95;100.00
68594;BME280;55563;52.416;13.548;2023-04-21T02:37:28;101510.50;;;8.85;100.00
68594;BME280;55563;52.416;13.548;2023-04-21T02:39:28;101518.16;;;8.87;100.00
68594;BME280;55563;52.416;13.548;2023-04-21T02:41:30;101518.25;;;8.80;100.00
68594;BME280;55563;52.416;13.548;2023-04-21T02:43:30;101515.03;;;8.78;100.00
68594;BME280;55563;52.416;13.548;2023-04-21T02:45:31;101520.28;;;8.78;100.00
68594;BME280;55563;52.416;13.548;2023-04-21T02:47:32;101515.75;;;8.85;100.00
68594;BME280;55563;52.416;13.548;2023-04-21T02:49:32;101516.91;;;8.78;100.00
68594;BME280;55563;52.416;13.548;2023-04-21T02:51:33;101521.09;;;8.79;100.00
68594;BME280;55563;52.416;13.548;2023-04-21T02:53:34;101515.97;;;8.72;100.00
68594;BME280;55563;52.416;13.548;2023-04-21T02:55:34;101516.84;;;8.66;100.00
68594;BME280;55563;52.416;13.548;2023-04-21T02:57:36;101518.78;;;8.70;100.00
68594;BME280;55563;52.416;13.548;2023-04-21T02:59:37;101519.81;;;8.69;100.00
68594;BME280;55563;52.416;13.548;2023-04-21T03:01:38;101517.44;;;8.68;100.00
68594;BME280;55563;52.416;13.548;2023-04-21T03:03:42;101521.88;;;8.67;100.00
68594;BME280;55563;52.416;13.548;2023-04-21T03:05:45;101514.44;;;8.64;100.00
68594;BME280;55563;52.416;13.548;2023-04-21T03:07:46;101518.66;;;8.65;100.00
68594;BME280;55563;52.416;13.548;2023-04-21T03:09:46;101518.53;;;8.60;100.00
68594;BME280;55563;52.416;13.548;2023-04-21T03:11:47;101517.59;;;8.55;100.00
68594;BME280;55563;52.416;13.548;2023-04-21T03:13:48;101510.69;;;8.60;100.00
68594;BME280;55563;52.416;13.548;2023-04-21T03:15:49;101509.66;;;8.61;100.00
68594;BME280;55563;52.416;13.548;2023-04-21T03:17:50;101507.13;;;8.55;100.00
68594;BME280;55563;52.416;13.548;2023-04-21T03:19:51;101517.38;;;8.56;100.00
68594;BME280;55563;52.416;13.548;2023-04-21T03:21:51;101508.94;;;8.54;100.00
68594;BME280;55563;52.416;13.548;2023-04-21T03:23:52;101515.91;;;8.49;100.00
68594;BME280;55563;52.416;13.548;2023-04-21T03:25:53;101518.88;;;8.52;100.00
68594;BME280;55563;52.416;13.548;2023-04-21T03:27:55;101513.91;;;8.44;100.00
68594;BME280;55563;52.416;13.548;2023-04-21T03:29:55;101515.91;;;8.49;100.00
68594;BME280;55563;52.416;13.548;2023-04-21T03:31:56;101515.53;;;8.45;100.00
68594;BME280;55563;52.416;13.548;2023-04-21T03:33:58;101515.75;;;8.44;100.00
68594;BME280;55563;52.416;13.548;2023-04-21T03:35:59;101516.78;;;8.43;100.00
68594;BME280;55563;52.416;13.548;2023-04-21T03:38:03;101522.69;;;8.38;100.00
68594;BME280;55563;52.416;13.548;2023-04-21T03:40:04;101505.16;;;8.39;100.00
68594;BME280;55563;52.416;13.548;2023-04-21T03:42:06;101509.13;;;8.41;100.00
68594;BME280;55563;52.416;13.548;2023-04-21T03:44:07;101515.69;;;8.32;100.00
68594;BME280;55563;52.416;13.548;2023-04-21T03:46:16;101515.75;;;8.25;100.00
68594;BME280;55563;52.416;13.548;2023-04-21T03:48:17;101519.13;;;8.32;100.00
68594;BME280;55563;52.416;13.548;2023-04-21T03:50:18;101525.38;;;8.31;100.00
68594;BME280;55563;52.416;13.548;2023-04-21T03:52:19;101523.38;;;8.27;100.00
68594;BME280;55563;52.416;13.548;2023-04-21T03:54:19;101518.31;;;8.32;100.00
68594;BME280;55563;52.416;13.548;2023-04-21T03:56:20;101510.47;;;8.32;100.00
68594;BME280;55563;52.416;13.548;2023-04-21T03:58:21;101520.78;;;8.27;100.00
68594;BME280;55563;52.416;13.548;2023-04-21T04:00:22;101520.41;;;8.23;100.00
68594;BME280;55563;52.416;13.548;2023-04-21T04:02:23;101515.84;;;8.19;100.00
68594;BME280;55563;52.416;13.548;2023-04-21T04:04:23;101516.19;;;8.22;100.00
68594;BME280;55563;52.416;13.548;2023-04-21T04:06:38;101515.53;;;8.27;100.00
68594;BME280;55563;52.416;13.548;2023-04-21T04:08:52;101520.84;;;8.20;100.00
68594;BME280;55563;52.416;13.548;2023-04-21T04:11:08;101523.97;;;8.29;100.00
68594;BME280;55563;52.416;13.548;2023-04-21T04:13:09;101524.81;;;8.29;100.00
68594;BME280;55563;52.416;13.548;2023-04-21T04:15:10;101525.78;;;8.28;100.00
68594;BME280;55563;52.416;13.548;2023-04-21T04:17:10;101525.97;;;8.34;100.00
68594;BME280;55563;52.416;13.548;2023-04-21T04:19:11;101532.66;;;8.29;100.00
68594;BME280;55563;52.416;13.548;2023-04-21T04:21:12;101518.91;;;8.34;100.00
68594;BME280;55563;52.416;13.548;2023-04-21T04:23:12;101526.91;;;8.39;100.00
68594;BME280;55563;52.416;13.548;2023-04-21T04:25:13;101529.38;;;8.34;100.00
68594;BME280;55563;52.416;13.548;2023-04-21T04:27:16;101513.00;;;8.39;100.00
68594;BME280;55563;52.416;13.548;2023-04-21T04:29:17;101527.47;;;8.41;100.00
68594;BME280;55563;52.416;13.548;2023-04-21T04:31:18;101522.94;;;8.48;100.00
68594;BME280;55563;52.416;13.548;2023-04-21T04:33:19;101529.50;;;9.10;100.00
68594;BME280;55563;52.416;13.548;2023-04-21T04:35:20;101522.53;;;9.51;100.00
68594;BME280;55563;52.416;13.548;2023-04-21T04:37:21;101523.22;;;9.46;100.00
68594;BME280;55563;52.416;13.548;2023-04-21T04:39:21;101531.66;;;9.60;100.00
68594;BME280;55563;52.416;13.548;2023-04-21T04:41:22;101529.06;;;9.25;100.00
68594;BME280;55563;52.416;13.548;2023-04-21T04:43:23;101527.19;;;9.02;100.00
68594;BME280;55563;52.416;13.548;2023-04-21T04:45:26;101530.50;;;9.21;100.00
68594;BME280;55563;52.416;13.548;2023-04-21T04:47:27;101532.19;;;9.85;100.00
68594;BME280;55563;52.416;13.548;2023-04-21T04:49:29;101533.84;;;10.15;100.00
68594;BME280;55563;52.416;13.548;2023-04-21T04:51:29;101535.44;;;11.17;100.00
68594;BME280;55563;52.416;13.548;2023-04-21T04:53:32;101526.19;;;11.70;100.00
68594;BME280;55563;52.416;13.548;2023-04-21T04:55:32;101523.69;;;12.02;100.00
68594;BME280;55563;52.416;13.548;2023-04-21T04:57:33;101531.69;;;12.34;100.00
68594;BME280;55563;52.416;13.548;2023-04-21T04:59:34;101535.53;;;12.21;100.00
68594;BME280;55563;52.416;13.548;2023-04-21T05:01:36;101538.28;;;11.88;100.00
68594;BME280;55563;52.416;13.548;2023-04-21T05:03:37;101531.81;;;11.23;100.00
68594;BME280;55563;52.416;13.548;2023-04-21T05:05:38;101540.13;;;10.54;100.00
68594;BME280;55563;52.416;13.548;2023-04-21T05:07:38;101539.81;;;10.50;100.00
68594;BME280;55563;52.416;13.548;2023-04-21T05:09:39;101538.28;;;10.82;100.00
68594;BME280;55563;52.416;13.548;2023-04-21T05:11:39;101537.47;;;10.82;100.00
68594;BME280;55563;52.416;13.548;2023-04-21T05:13:40;101535.47;;;11.39;100.00
68594;BME280;55563;52.416;13.548;2023-04-21T05:15:41;101536.38;;;10.10;100.00
68594;BME280;55563;52.416;13.548;2023-04-21T05:17:42;101539.84;;;10.67;100.00
68594;BME280;55563;52.416;13.548;2023-04-21T05:19:42;101534.03;;;10.36;100.00
68594;BME280;55563;52.416;13.548;2023-04-21T05:21:43;101533.47;;;10.63;100.00
68594;BME280;55563;52.416;13.548;2023-04-21T05:23:43;101539.19;;;10.60;100.00
68594;BME280;55563;52.416;13.548;2023-04-21T05:25:44;101541.94;;;13.47;100.00
68594;BME280;55563;52.416;13.548;2023-04-21T05:27:45;101538.41;;;13.79;100.00
68594;BME280;55563;52.416;13.548;2023-04-21T05:29:46;101546.66;;;15.15;100.00
68594;BME280;55563;52.416;13.548;2023-04-21T05:31:47;101541.19;;;14.14;100.00
68594;BME280;55563;52.416;13.548;2023-04-21T05:33:47;101529.81;;;15.86;100.00
68594;BME280;55563;52.416;13.548;2023-04-21T05:35:48;101540.19;;;16.31;93.85
68594;BME280;55563;52.416;13.548;2023-04-21T05:37:49;101541.19;;;16.84;90.15
68594;BME280;55563;52.416;13.548;2023-04-21T05:39:50;101537.16;;;16.53;91.02
68594;BME280;55563;52.416;13.548;2023-04-21T05:41:50;101547.53;;;16.00;94.12
68594;BME280;55563;52.416;13.548;2023-04-21T05:43:51;101540.41;;;16.45;91.42
68594;BME280;55563;52.416;13.548;2023-04-21T05:45:52;101538.44;;;16.99;87.97
68594;BME280;55563;52.416;13.548;2023-04-21T05:47:52;101542.31;;;18.12;81.09
68594;BME280;55563;52.416;13.548;2023-04-21T05:49:53;101545.66;;;17.99;77.70
68594;BME280;55563;52.416;13.548;2023-04-21T05:51:54;101540.34;;;17.75;75.00
68594;BME280;55563;52.416;13.548;2023-04-21T05:53:54;101544.47;;;16.76;83.20
68594;BME280;55563;52.416;13.548;2023-04-21T05:55:55;101540.78;;;17.35;75.90
68594;BME280;55563;52.416;13.548;2023-04-21T05:57:56;101537.38;;;16.67;88.60
68594;BME280;55563;52.416;13.548;2023-04-21T05:59:57;101544.19;;;18.30;69.96
68594;BME280;55563;52.416;13.548;2023-04-21T06:01:57;101532.19;;;17.91;75.91
68594;BME280;55563;52.416;13.548;2023-04-21T06:03:58;101544.81;;;16.98;74.12
68594;BME280;55563;52.416;13.548;2023-04-21T06:06:00;101536.59;;;18.94;66.80
68594;BME280;55563;52.416;13.548;2023-04-21T06:08:01;101535.84;;;18.75;67.44
68594;BME280;55563;52.416;13.548;2023-04-21T06:10:02;101534.88;;;18.28;62.22
68594;BME280;55563;52.416;13.548;2023-04-21T06:12:03;101537.19;;;21.08;58.33
68594;BME280;55563;52.416;13.548;2023-04-21T06:14:17;101529.31;;;19.59;57.97
68594;BME280;55563;52.416;13.548;2023-04-21T06:16:18;101533.69;;;20.54;57.08
68594;BME280;55563;52.416;13.548;2023-04-21T06:18:19;101525.50;;;20.95;55.57
68594;BME280;55563;52.416;13.548;2023-04-21T06:20:20;101527.88;;;21.67;51.85
68594;BME280;55563;52.416;13.548;2023-04-21T06:22:22;101518.97;;;21.10;56.17
68594;BME280;55563;52.416;13.548;2023-04-21T06:24:23;101530.38;;;18.98;56.08
68594;BME280;55563;52.416;13.548;2023-04-21T06:26:24;101519.25;;;20.33;55.26
68594;BME280;55563;52.416;13.548;2023-04-21T06:28:25;101518.22;;;20.65;53.86
68594;BME280;55563;52.416;13.548;2023-04-21T06:30:26;101516.56;;;20.55;53.34
68594;BME280;55563;52.416;13.548;2023-04-21T06:32:27;101515.50;;;20.87;100.00
68594;BME280;55563;52.416;13.548;2023-04-21T06:34:27;101524.44;;;21.36;100.00
68594;BME280;55563;52.416;13.548;2023-04-21T06:36:28;101511.72;;;20.21;63.94
68594;BME280;55563;52.416;13.548;2023-04-21T06:38:29;101508.31;;;19.93;59.28
68594;BME280;55563;52.416;13.548;2023-04-21T06:40:29;101502.59;;;22.16;54.02
68594;BME280;55563;52.416;13.548;2023-04-21T06:42:30;101510.06;;;20.70;50.33
68594;BME280;55563;52.416;13.548;2023-04-21T06:44:31;101508.94;;;21.55;51.36
68594;BME280;55563;52.416;13.548;2023-04-21T06:46:31;101506.38;;;20.57;48.39
68594;BME280;55563;52.416;13.548;2023-04-21T06:48:32;101515.28;;;21.19;52.44
68594;BME280;55563;52.416;13.548;2023-04-21T06:50:33;101502.66;;;20.44;52.79
68594;BME280;55563;52.416;13.548;2023-04-21T06:52:33;101501.56;;;21.21;53.05
68594;BME280;55563;52.416;13.548;2023-04-21T06:54:34;101508.25;;;22.83;38.30
68594;BME280;55563;52.416;13.548;2023-04-21T06:56:35;101496.78;;;23.12;48.50
68594;BME280;55563;52.416;13.548;2023-04-21T06:58:55;101500.97;;;23.39;34.02
68594;BME280;55563;52.416;13.548;2023-04-21T07:00:56;101505.31;;;22.33;46.55
68594;BME280;55563;52.416;13.548;2023-04-21T07:02:57;101500.69;;;21.91;47.58
68594;BME280;55563;52.416;13.548;2023-04-21T07:04:58;101503.13;;;21.61;47.99
68594;BME280;55563;52.416;13.548;2023-04-21T07:06:58;101500.25;;;22.32;47.14
68594;BME280;55563;52.416;13.548;2023-04-21T07:08:59;101505.84;;;21.87;46.10
68594;BME280;55563;52.416;13.548;2023-04-21T07:11:00;101514.94;;;21.21;46.26
68594;BME280;55563;52.416;13.548;2023-04-21T07:13:00;101496.31;;;22.12;45.03
68594;BME280;55563;52.416;13.548;2023-04-21T07:15:02;101501.19;;;22.27;45.67
68594;BME280;55563;52.416;13.548;2023-04-21T07:17:02;101501.00;;;22.67;45.42
68594;BME280;55563;52.416;13.548;2023-04-21T07:19:04;101500.41;;;20.24;49.31
68594;BME280;55563;52.416;13.548;2023-04-21T07:21:05;101504.75;;;23.00;45.67
68594;BME280;55563;52.416;13.548;2023-04-21T07:23:05;101506.69;;;23.67;43.76
68594;BME280;55563;52.416;13.548;2023-04-21T07:25:06;101503.66;;;23.39;43.34
68594;BME280;55563;52.416;13.548;2023-04-21T07:27:07;101502.03;;;23.46;43.12
68594;BME280;55563;52.416;13.548;2023-04-21T07:29:15;101498.72;;;23.50;43.86
68594;BME280;55563;52.416;13.548;2023-04-21T07:31:29;101495.00;;;21.84;46.25
68594;BME280;55563;52.416;13.548;2023-04-21T07:33:50;101497.41;;;23.18;45.07
68594;BME280;55563;52.416;13.548;2023-04-21T07:36:04;101491.13;;;21.50;46.05
68594;BME280;55563;52.416;13.548;2023-04-21T07:38:05;101497.72;;;20.82;50.13
68594;BME280;55563;52.416;13.548;2023-04-21T07:40:07;101501.75;;;23.39;44.77
68594;BME280;55563;52.416;13.548;2023-04-21T07:42:08;101492.66;;;24.65;42.00
68594;BME280;55563;52.416;13.548;2023-04-21T07:44:10;101499.66;;;21.52;44.69
68594;BME280;55563;52.416;13.548;2023-04-21T07:46:11;101498.94;;;22.89;43.38
68594;BME280;55563;52.416;13.548;2023-04-21T07:48:13;101488.66;;;20.61;49.20
68594;BME280;55563;52.416;13.548;2023-04-21T07:50:13;101483.66;;;19.61;51.39
68594;BME280;55563;52.416;13.548;2023-04-21T07:52:14;101491.91;;;18.72;54.57
68594;BME280;55563;52.416;13.548;2023-04-21T07:54:15;101487.13;;;18.88;57.75
68594;BME280;55563;52.416;13.548;2023-04-21T07:56:16;101487.09;;;18.74;60.81
68594;BME280;55563;52.416;13.548;2023-04-21T07:58:16;101488.34;;;19.09;61.29
68594;BME280;55563;52.416;13.548;2023-04-21T08:00:17;101493.50;;;18.73;63.55
68594;BME280;55563;52.416;13.548;2023-04-21T08:02:18;101486.06;;;19.02;65.57
68594;BME280;55563;52.416;13.548;2023-04-21T08:04:19;101483.75;;;17.94;69.58
68594;BME280;55563;52.416;13.548;2023-04-21T08:06:19;101492.09;;;18.24;66.65
68594;BME280;55563;52.416;13.548;2023-04-21T08:08:20;101487.81;;;17.67;68.12
68594;BME280;55563;52.416;13.548;2023-04-21T08:10:21;101486.59;;;17.31;74.86
68594;BME280;55563;52.416;13.548;2023-04-21T08:12:22;101476.94;;;17.64;71.98
68594;BME280;55563;52.416;13.548;2023-04-21T08:14:23;101490.00;;;17.84;67.74
68594;BME280;55563;52.416;13.548;2023-04-21T08:16:26;101486.09;;;17.29;72.12
68594;BME280;55563;52.416;13.548;2023-04-21T08:18:28;101479.66;;;18.20;68.69
68594;BME280;55563;52.416;13.548;2023-04-21T08:20:29;101470.00;;;18.24;68.69
68594;BME280;55563;52.416;13.548;2023-04-21T08:22:30;101474.84;;;17.61;69.17
68594;BME280;55563;52.416;13.548;2023-04-21T08:24:31;101482.88;;;18.36;74.20
68594;BME280;55563;52.416;13.548;2023-04-21T08:26:32;101472.09;;;18.64;68.29
68594;BME280;55563;52.416;13.548;2023-04-21T08:28:33;101472.78;;;17.76;65.61
68594;BME280;55563;52.416;13.548;2023-04-21T08:30:34;101473.72;;;17.67;71.41
68594;BME280;55563;52.416;13.548;2023-04-21T08:32:34;101472.88;;;18.65;70.72
68594;BME280;55563;52.416;13.548;2023-04-21T08:34:35;101470.88;;;18.01;68.64
68594;BME280;55563;52.416;13.548;2023-04-21T08:36:36;101472.09;;;17.90;66.07
68594;BME280;55563;52.416;13.548;2023-04-21T08:38:37;101468.09;;;17.44;65.10
68594;BME280;55563;52.416;13.548;2023-04-21T08:40:38;101473.81;;;17.99;69.07
68594;BME280;55563;52.416;13.548;2023-04-21T08:42:39;101474.91;;;17.98;67.09
68594;BME280;55563;52.416;13.548;2023-04-21T08:44:40;101470.88;;;18.01;65.86
68594;BME280;55563;52.416;13.548;2023-04-21T08:46:42;101466.75;;;17.90;68.55
68594;BME280;55563;52.416;13.548;2023-04-21T08:48:45;101461.88;;;17.78;70.62
68594;BME280;55563;52.416;13.548;2023-04-21T08:50:47;101470.72;;;18.29;65.58
68594;BME280;55563;52.416;13.548;2023-04-21T08:52:48;101464.66;;;17.68;66.52
68594;BME280;55563;52.416;13.548;2023-04-21T08:54:49;101468.16;;;18.06;65.02
68594;BME280;55563;52.416;13.548;2023-04-21T08:56:52;101464.03;;;18.13;70.61
68594;BME280;55563;52.416;13.548;2023-04-21T08:58:53;101474.13;;;18.54;66.52
68594;BME280;55563;52.416;13.548;2023-04-21T09:00:53;101473.69;;;18.79;66.00
68594;BME280;55563;52.416;13.548;2023-04-21T09:02:56;101462.88;;;18.89;65.98
68594;BME280;55563;52.416;13.548;2023-04-21T09:04:57;101465.50;;;18.06;63.96
68594;BME280;55563;52.416;13.548;2023-04-21T09:06:59;101463.28;;;18.13;66.96
68594;BME280;55563;52.416;13.548;2023-04-21T09:09:00;101458.09;;;18.21;68.12
68594;BME280;55563;52.416;13.548;2023-04-21T09:11:01;101460.59;;;18.83;65.53
68594;BME280;55563;52.416;13.548;2023-04-21T09:13:06;101461.69;;;17.93;61.26
68594;BME280;55563;52.416;13.548;2023-04-21T09:15:09;101458.03;;;18.08;64.11
68594;BME280;55563;52.416;13.548;2023-04-21T09:17:11;101452.09;;;18.29;63.69
68594;BME280;55563;52.416;13.548;2023-04-21T09:19:13;101460.84;;;18.67;61.55
68594;BME280;55563;52.416;13.548;2023-04-21T09:21:17;101454.31;;;18.41;61.33
68594;BME280;55563;52.416;13.548;2023-04-21T09:23:19;101460.06;;;18.48;61.31
68594;BME280;55563;52.416;13.548;2023-04-21T09:25:21;101458.13;;;18.54;60.27
68594;BME280;55563;52.416;13.548;2023-04-21T09:27:23;101458.69;;;18.32;62.14
68594;BME280;55563;52.416;13.548;2023-04-21T09:29:24;101459.97;;;18.72;65.54
68594;BME280;55563;52.416;13.548;2023-04-21T09:31:25;101457.84;;;18.37;62.39
68594;BME280;55563;52.416;13.548;2023-04-21T09:33:32;101460.44;;;18.23;61.35
68594;BME280;55563;52.416;13.548;2023-04-21T09:35:35;101457.38;;;18.16;62.74
68594;BME280;55563;52.416;13.548;2023-04-21T09:37:36;101457.19;;;18.45;61.62
68594;BME280;55563;52.416;13.548;2023-04-21T09:39:38;101445.84;;;18.20;59.83
68594;BME280;55563;52.416;13.548;2023-04-21T09:41:39;101453.94;;;18.48;60.42
68594;BME280;55563;52.416;13.548;2023-04-21T09:43:39;101453.28;;;18.37;60.88
68594;BME280;55563;52.416;13.548;2023-04-21T09:45:40;101448.28;;;18.36;61.28
68594;BME280;55563;52.416;13.548;2023-04-21T09:47:41;101442.84;;;18.27;61.42
68594;BME280;55563;52.416;13.548;2023-04-21T09:49:42;101445.81;;;18.58;62.69
68594;BME280;55563;52.416;13.548;2023-04-21T09:51:44;101443.09;;;18.44;60.85
68594;BME280;55563;52.416;13.548;2023-04-21T09:53:46;101451.94;;;18.40;62.36
68594;BME280;55563;52.416;13.548;2023-04-21T09:55:50;101442.66;;;18.37;60.00
68594;BME280;55563;52.416;13.548;2023-04-21T09:57:51;101439.97;;;18.88;60.10
68594;BME280;55563;52.416;13.548;2023-04-21T09:59:59;101449.00;;;18.60;59.68
68594;BME280;55563;52.416;13.548;2023-04-21T10:02:04;101438.75;;;18.81;65.21
68594;BME280;55563;52.416;13.548;2023-04-21T10:04:05;101440.78;;;19.16;65.97
68594;BME280;55563;52.416;13.548;2023-04-21T10:06:06;101432.56;;;18.85;60.54
68594;BME280;55563;52.416;13.548;2023-04-21T10:08:08;101425.38;;;18.99;57.06
68594;BME280;55563;52.416;13.548;2023-04-21T10:10:18;101423.31;;;18.96;57.19
68594;BME280;55563;52.416;13.548;2023-04-21T10:12:21;101427.06;;;19.50;57.51
68594;BME280;55563;52.416;13.548;2023-04-21T10:14:24;101419.19;;;19.04;60.58
68594;BME280;55563;52.416;13.548;2023-04-21T10:16:25;101421.16;;;19.12;56.51
68594;BME280;55563;52.416;13.548;2023-04-21T10:18:27;101431.53;;;19.13;54.58
68594;BME280;55563;52.416;13.548;2023-04-21T10:20:29;101436.81;;;18.86;55.16
68594;BME280;55563;52.416;13.548;2023-04-21T10:22:31;101431.38;;;18.91;56.07
68594;BME280;55563;52.416;13.548;2023-04-21T10:24:55;101430.19;;;18.84;57.89
68594;BME280;55563;52.416;13.548;2023-04-21T10:27:08;101421.13;;;18.85;56.49